createdAt,value
2017-06-05T00:00:58.126Z,97.30
2017-06-05T00:03:24.352Z,96.90
2017-06-05T00:05:50.575Z,96.90
2017-06-05T00:08:16.762Z,97.10
2017-06-05T00:10:42.944Z,97.10
2017-06-05T00:13:09.149Z,97.00
2017-06-05T00:15:35.349Z,97.00
2017-06-05T00:18:01.545Z,96.60
2017-06-05T00:20:27.748Z,96.60
2017-06-05T00:22:53.928Z,96.60
2017-06-05T00:25:20.153Z,96.40
2017-06-05T00:27:46.341Z,96.40
2017-06-05T00:30:12.529Z,96.60
2017-06-05T00:32:39.000Z,96.50
2017-06-05T00:35:05.194Z,96.40
2017-06-05T00:37:31.401Z,96.50
2017-06-05T00:39:57.571Z,96.40
2017-06-05T00:42:23.773Z,96.70
2017-06-05T00:44:49.953Z,96.90
2017-06-05T00:47:16.156Z,97.40
2017-06-05T00:49:42.352Z,97.10
2017-06-05T00:52:08.515Z,97.00
2017-06-05T00:54:34.728Z,96.80
2017-06-05T00:57:00.925Z,97.30
2017-06-05T00:59:27.104Z,97.40
2017-06-05T01:01:53.301Z,97.40
2017-06-05T01:04:19.471Z,97.20
2017-06-05T01:06:45.708Z,97.20
2017-06-05T01:09:11.892Z,97.40
2017-06-05T01:11:38.096Z,97.60
2017-06-05T01:14:04.305Z,97.60
2017-06-05T01:16:30.498Z,97.60
2017-06-05T01:18:57.424Z,97.40
2017-06-05T01:21:23.640Z,97.30
2017-06-05T01:23:49.821Z,97.30
2017-06-05T01:26:16.000Z,97.30
2017-06-05T01:28:42.208Z,97.10
2017-06-05T01:31:08.416Z,97.30
2017-06-05T01:33:34.592Z,96.80
2017-06-05T01:36:00.797Z,97.00
2017-06-05T01:38:27.008Z,97.10
2017-06-05T01:40:53.222Z,97.10
2017-06-05T01:43:19.431Z,96.70
2017-06-05T01:45:45.652Z,96.20
2017-06-05T01:48:11.893Z,96.10
2017-06-05T01:50:38.117Z,96.30
2017-06-05T01:53:04.328Z,96.40
2017-06-05T01:55:30.509Z,96.70
2017-06-05T01:57:56.749Z,96.80
2017-06-05T02:00:22.944Z,97.20
2017-06-05T02:02:49.120Z,97.40
2017-06-05T02:05:15.325Z,97.20
2017-06-05T02:07:41.544Z,97.50
2017-06-05T02:10:07.708Z,97.70
2017-06-05T02:12:34.640Z,98.50
2017-06-05T02:15:00.853Z,98.50
2017-06-05T02:17:27.033Z,98.70
2017-06-05T02:19:53.204Z,98.70
2017-06-05T02:22:19.448Z,98.70
2017-06-05T02:24:45.653Z,98.80
2017-06-05T02:27:11.829Z,99.10
2017-06-05T02:29:38.805Z,98.40
2017-06-05T02:32:04.975Z,98.40
2017-06-05T02:34:31.151Z,98.50
2017-06-05T02:36:57.375Z,98.20
2017-06-05T02:39:23.579Z,98.30
2017-06-05T02:41:49.757Z,98.80
2017-06-05T02:44:15.961Z,99.30
2017-06-05T02:46:42.133Z,99.30
2017-06-05T02:49:08.305Z,99.30
2017-06-05T02:51:34.508Z,99.40
2017-06-05T02:54:01.424Z,99.80
2017-06-05T02:56:27.620Z,99.80
2017-06-05T02:58:53.838Z,99.70
2017-06-05T03:01:20.036Z,99.90
2017-06-05T03:03:46.229Z,99.90
2017-06-05T03:19:06.371Z,99.90
2017-06-05T03:21:32.548Z,99.30
2017-06-05T03:23:59.525Z,99.90
2017-06-05T03:26:25.729Z,99.90
2017-06-05T03:28:52.642Z,99.60
2017-06-05T03:31:18.820Z,99.50
2017-06-05T03:33:45.472Z,99.40
2017-06-05T03:36:11.641Z,99.70
2017-06-05T03:38:37.876Z,99.90
2017-06-05T03:41:04.097Z,99.90
2017-06-05T03:43:30.289Z,99.90
2017-06-05T03:45:56.467Z,99.90
2017-06-05T03:48:22.680Z,99.90
2017-06-05T03:50:48.860Z,99.90
2017-06-05T03:53:15.043Z,99.90
2017-06-05T03:55:41.253Z,99.90
2017-06-05T03:58:07.420Z,99.90
2017-06-05T04:00:33.603Z,99.90
2017-06-05T04:02:59.811Z,99.90
2017-06-05T04:05:25.996Z,99.90
2017-06-05T04:07:52.192Z,99.90
2017-06-05T04:10:18.401Z,99.90
2017-06-05T04:12:44.580Z,99.90
2017-06-05T04:15:10.800Z,99.90
2017-06-05T04:17:37.014Z,99.90
2017-06-05T04:20:03.184Z,99.90
2017-06-05T04:22:29.363Z,99.90
2017-06-05T04:24:55.576Z,99.90
2017-06-05T04:27:21.762Z,99.90
2017-06-05T04:29:48.296Z,99.90
2017-06-05T04:32:14.499Z,99.90
2017-06-05T04:34:40.691Z,99.90
2017-06-05T04:37:06.889Z,99.90
2017-06-05T04:39:33.103Z,99.90
2017-06-05T04:41:59.285Z,99.90
2017-06-05T04:44:25.497Z,99.90
2017-06-05T04:46:51.711Z,99.90
2017-06-05T04:49:17.895Z,99.90
2017-06-05T04:51:44.077Z,99.90
2017-06-05T04:54:10.279Z,99.90
2017-06-05T04:56:36.496Z,99.90
2017-06-05T04:59:02.708Z,99.90
2017-06-05T05:01:28.875Z,99.90
2017-06-05T05:03:55.444Z,99.90
2017-06-05T05:06:21.640Z,99.90
2017-06-05T05:08:47.814Z,99.90
2017-06-05T05:11:14.028Z,99.90
2017-06-05T05:13:40.212Z,99.40
2017-06-05T05:16:06.404Z,99.60
2017-06-05T05:18:32.620Z,99.20
2017-06-05T05:20:59.545Z,99.20
2017-06-05T05:23:25.720Z,99.00
2017-06-05T05:25:52.009Z,98.70
2017-06-05T05:28:18.197Z,99.20
2017-06-05T05:30:44.372Z,99.30
2017-06-05T05:33:10.635Z,99.20
2017-06-05T05:35:36.807Z,98.50
2017-06-05T05:38:03.043Z,98.40
2017-06-05T05:40:29.219Z,97.90
2017-06-05T05:42:55.389Z,97.50
2017-06-05T05:45:21.869Z,97.40
2017-06-05T05:47:48.048Z,96.90
2017-06-05T05:50:14.244Z,96.90
2017-06-05T05:52:40.447Z,97.40
2017-06-05T05:55:06.625Z,97.50
2017-06-05T05:57:32.799Z,97.80
2017-06-05T05:59:59.008Z,96.90
2017-06-05T06:02:25.196Z,96.90
2017-06-05T06:04:51.369Z,96.60
2017-06-05T06:07:17.568Z,96.40
2017-06-05T06:09:43.800Z,96.40
2017-06-05T06:12:09.980Z,97.00
2017-06-05T06:14:36.160Z,96.80
2017-06-05T06:17:03.113Z,96.60
2017-06-05T06:19:29.322Z,96.60
2017-06-05T06:21:56.303Z,96.50
2017-06-05T06:24:22.404Z,96.50
2017-06-05T06:26:49.320Z,96.40
2017-06-05T06:29:15.613Z,96.40
2017-06-05T06:31:41.867Z,96.30
2017-06-05T06:34:08.040Z,96.40
2017-06-05T06:36:34.243Z,96.30
2017-06-05T06:39:00.445Z,96.40
2017-06-05T06:41:26.624Z,96.50
2017-06-05T06:43:52.864Z,96.60
2017-06-05T06:46:19.057Z,96.30
2017-06-05T06:48:45.977Z,95.60
2017-06-05T06:51:12.208Z,95.60
2017-06-05T06:53:38.380Z,95.30
2017-06-05T06:56:04.549Z,95.50
2017-06-05T06:58:30.767Z,95.60
2017-06-05T07:00:56.962Z,95.50
2017-06-05T07:03:23.171Z,95.30
2017-06-05T07:05:50.160Z,94.80
2017-06-05T07:08:16.335Z,94.80
2017-06-05T07:10:43.311Z,96.20
2017-06-05T07:13:09.516Z,96.20
2017-06-05T07:15:36.429Z,95.80
2017-06-05T07:18:02.716Z,95.70
2017-06-05T07:20:28.929Z,95.40
2017-06-05T07:22:55.112Z,95.30
2017-06-05T07:25:21.309Z,95.80
2017-06-05T07:27:47.521Z,94.80
2017-06-05T07:30:13.717Z,94.30
2017-06-05T07:32:39.938Z,93.80
2017-06-05T07:35:06.108Z,93.10
2017-06-05T07:37:32.313Z,93.10
2017-06-05T07:39:58.532Z,92.80
2017-06-05T07:42:25.448Z,92.60
2017-06-05T07:44:51.632Z,92.60
2017-06-05T07:47:17.859Z,91.70
2017-06-05T07:49:44.033Z,91.50
2017-06-05T07:52:10.205Z,91.80
2017-06-05T07:54:36.433Z,91.50
2017-06-05T07:57:02.609Z,91.50
2017-06-05T07:59:29.564Z,90.80
2017-06-05T08:01:55.924Z,90.70
2017-06-05T08:04:22.193Z,91.60
2017-06-05T08:06:48.368Z,91.40
2017-06-05T08:09:14.589Z,91.80
2017-06-05T08:11:41.536Z,91.50
2017-06-05T08:14:08.461Z,91.40
2017-06-05T08:16:35.452Z,91.40
2017-06-05T08:19:01.636Z,91.60
2017-06-05T08:21:27.820Z,92.30
2017-06-05T08:23:54.152Z,92.10
2017-06-05T08:26:20.371Z,92.00
2017-06-05T08:28:46.549Z,92.00
2017-06-05T08:31:12.744Z,91.40
2017-06-05T08:33:38.966Z,92.00
2017-06-05T08:36:05.154Z,91.90
2017-06-05T08:38:31.342Z,91.70
2017-06-05T08:40:57.637Z,91.60
2017-06-05T08:43:23.837Z,91.40
2017-06-05T08:45:50.025Z,91.30
2017-06-05T08:48:16.312Z,91.40
2017-06-05T08:50:42.608Z,91.40
2017-06-05T08:53:08.816Z,91.20
2017-06-05T08:55:35.014Z,90.80
2017-06-05T08:58:01.216Z,91.00
2017-06-05T09:00:27.432Z,90.40
2017-06-05T09:02:53.656Z,90.40
2017-06-05T09:05:19.962Z,90.30
2017-06-05T09:07:46.184Z,90.20
2017-06-05T09:10:12.482Z,90.40
2017-06-05T09:12:38.684Z,90.30
2017-06-05T09:15:04.881Z,90.30
2017-06-05T09:17:31.088Z,90.30
2017-06-05T09:19:57.300Z,90.30
2017-06-05T09:22:23.572Z,88.90
2017-06-05T09:24:50.532Z,88.40
2017-06-05T09:27:16.803Z,88.30
2017-06-05T09:29:49.174Z,90.00
2017-06-05T09:32:15.373Z,89.50
2017-06-05T09:34:41.556Z,90.30
2017-06-05T09:37:07.783Z,89.70
2017-06-05T09:39:33.969Z,90.20
2017-06-05T09:42:00.212Z,90.70
2017-06-05T09:44:26.397Z,90.70
2017-06-05T09:46:52.604Z,91.40
2017-06-05T09:49:19.593Z,91.70
2017-06-05T09:51:45.816Z,91.60
2017-06-05T09:54:12.010Z,91.50
2017-06-05T09:56:38.970Z,92.50
2017-06-05T09:59:05.147Z,92.40
2017-06-05T10:01:31.380Z,93.10
2017-06-05T10:03:57.557Z,92.50
2017-06-05T10:06:23.757Z,92.50
2017-06-05T10:08:50.750Z,93.20
2017-06-05T10:11:16.936Z,93.20
2017-06-05T10:13:43.863Z,93.10
2017-06-05T10:16:10.104Z,93.10
2017-06-05T10:18:37.027Z,93.60
2017-06-05T10:21:03.226Z,93.60
2017-06-05T10:23:29.509Z,93.50
2017-06-05T10:25:56.426Z,95.00
2017-06-05T10:28:22.644Z,94.90
2017-06-05T10:30:48.869Z,94.60
2017-06-05T10:33:15.079Z,94.60
2017-06-05T10:35:41.256Z,95.20
2017-06-05T10:38:07.492Z,95.80
2017-06-05T10:40:33.683Z,94.90
2017-06-05T10:42:59.935Z,95.00
2017-06-05T10:45:26.105Z,95.30
2017-06-05T10:47:52.312Z,95.70
2017-06-05T10:50:18.541Z,95.90
2017-06-05T10:52:44.772Z,96.70
2017-06-05T10:55:10.947Z,97.00
2017-06-05T10:57:37.178Z,96.70
2017-06-05T11:00:03.383Z,96.80
2017-06-05T11:02:29.579Z,96.70
2017-06-05T11:04:55.783Z,97.00
2017-06-05T11:07:22.802Z,96.80
2017-06-05T11:09:49.021Z,96.70
2017-06-05T11:12:15.201Z,96.70
2017-06-05T11:14:41.408Z,96.70
2017-06-05T11:17:08.361Z,96.50
2017-06-05T11:19:34.540Z,96.20
2017-06-05T11:22:00.753Z,96.60
2017-06-05T11:24:26.936Z,97.10
2017-06-05T11:26:53.112Z,97.50
2017-06-05T11:29:19.374Z,95.30
2017-06-05T11:31:45.563Z,96.20
2017-06-05T11:34:11.782Z,95.60
2017-06-05T11:36:38.000Z,95.60
2017-06-05T11:39:04.208Z,95.30
2017-06-05T11:41:31.138Z,96.20
2017-06-05T11:43:57.339Z,96.20
2017-06-05T11:46:23.644Z,96.70
2017-06-05T11:48:49.844Z,95.90
2017-06-05T11:51:16.037Z,97.80
2017-06-05T11:53:42.254Z,96.50
2017-06-05T11:56:08.470Z,95.50
2017-06-05T11:58:34.673Z,95.60
2017-06-05T12:01:00.920Z,95.50
2017-06-05T12:03:27.108Z,94.10
2017-06-05T12:05:53.319Z,94.80
2017-06-05T12:08:20.289Z,94.90
2017-06-05T12:10:46.481Z,94.50
2017-06-05T12:13:12.676Z,94.30
2017-06-05T12:15:38.910Z,93.80
2017-06-05T12:18:05.128Z,94.20
2017-06-05T12:20:31.321Z,93.70
2017-06-05T12:22:57.504Z,93.20
2017-06-05T12:25:23.753Z,94.50
2017-06-05T12:27:50.671Z,95.60
2017-06-05T12:30:16.876Z,95.60
2017-06-05T12:32:43.084Z,97.00
2017-06-05T12:35:09.290Z,95.80
2017-06-05T12:37:36.280Z,94.90
2017-06-05T12:40:02.473Z,94.90
2017-06-05T12:42:28.728Z,95.00
2017-06-05T12:44:54.934Z,94.90
2017-06-05T12:47:21.160Z,94.50
2017-06-05T12:49:47.389Z,94.00
2017-06-05T12:52:13.626Z,94.70
2017-06-05T12:54:39.820Z,95.00
2017-06-05T12:57:06.046Z,94.00
2017-06-05T12:59:32.303Z,94.70
2017-06-05T13:01:58.479Z,94.60
2017-06-05T13:04:24.737Z,94.10
2017-06-05T13:06:51.721Z,92.90
2017-06-05T13:09:17.925Z,92.90
2017-06-05T13:11:44.141Z,92.70
2017-06-05T13:14:11.105Z,92.70
2017-06-05T13:16:37.318Z,92.70
2017-06-05T13:19:03.520Z,92.70
2017-06-05T13:21:29.712Z,91.60
2017-06-05T13:23:55.934Z,92.60
2017-06-05T13:26:22.135Z,93.00
2017-06-05T13:28:48.347Z,92.80
2017-06-05T13:31:15.369Z,92.30
2017-06-05T13:33:41.692Z,92.20
2017-06-05T13:36:07.888Z,92.20
2017-06-05T13:38:34.088Z,92.10
2017-06-05T13:41:00.342Z,92.50
2017-06-05T13:43:26.524Z,91.80
2017-06-05T13:45:52.744Z,92.20
2017-06-05T13:48:20.771Z,90.90
2017-06-05T13:50:47.847Z,91.70
2017-06-05T13:53:15.768Z,91.30
2017-06-05T13:55:44.514Z,90.60
2017-06-05T13:58:10.750Z,90.80
2017-06-05T14:00:36.962Z,91.20
2017-06-05T14:03:03.253Z,90.30
2017-06-05T14:05:29.464Z,90.50
2017-06-05T14:07:55.689Z,91.30
2017-06-05T14:10:23.562Z,90.40
2017-06-05T14:12:51.444Z,89.20
2017-06-05T14:15:17.721Z,86.90
2017-06-05T14:17:43.953Z,85.20
2017-06-05T14:20:10.893Z,83.50
2017-06-05T14:22:37.108Z,83.00
2017-06-05T14:25:03.311Z,85.80
2017-06-05T14:27:29.517Z,85.00
2017-06-05T14:29:55.772Z,86.80
2017-06-05T14:32:21.999Z,85.40
2017-06-05T14:34:48.184Z,85.40
2017-06-05T14:37:14.405Z,86.80
2017-06-05T14:39:41.401Z,83.70
2017-06-05T14:42:07.648Z,83.60
2017-06-05T14:44:33.855Z,84.10
2017-06-05T14:47:00.052Z,85.20
2017-06-05T14:49:26.259Z,85.70
2017-06-05T14:51:53.202Z,83.20
2017-06-05T14:54:20.191Z,83.30
2017-06-05T14:56:46.403Z,83.30
2017-06-05T14:59:12.683Z,83.90
2017-06-05T15:01:38.908Z,84.20
2017-06-05T15:04:05.094Z,83.30
2017-06-05T15:06:31.293Z,84.30
2017-06-05T15:08:57.533Z,82.80
2017-06-05T15:11:23.767Z,82.70
2017-06-05T15:13:50.049Z,81.50
2017-06-05T15:16:16.254Z,82.80
2017-06-05T15:18:42.437Z,85.20
2017-06-05T15:21:08.696Z,84.00
2017-06-05T15:23:34.889Z,83.40
2017-06-05T15:26:01.133Z,83.30
2017-06-05T15:28:27.364Z,83.20
2017-06-05T15:30:53.568Z,83.20
2017-06-05T15:33:19.841Z,84.10
2017-06-05T15:35:46.029Z,83.20
2017-06-05T15:38:12.220Z,83.30
2017-06-05T15:40:38.457Z,84.90
2017-06-05T15:43:05.417Z,83.50
2017-06-05T15:45:32.349Z,85.30
2017-06-05T15:47:58.565Z,85.30
2017-06-05T15:50:24.768Z,84.60
2017-06-05T15:52:50.997Z,84.80
2017-06-05T15:55:17.180Z,83.90
2017-06-05T15:57:43.363Z,83.00
2017-06-05T16:00:09.639Z,82.50
2017-06-05T16:02:36.664Z,82.00
2017-06-05T16:05:02.870Z,84.20
2017-06-05T16:07:29.074Z,84.30
2017-06-05T16:09:55.270Z,84.30
2017-06-05T16:12:21.501Z,83.80
2017-06-05T16:14:47.704Z,83.80
2017-06-05T16:17:14.626Z,83.70
2017-06-05T16:19:40.849Z,83.60
2017-06-05T16:22:07.048Z,83.80
2017-06-05T16:24:33.248Z,84.10
2017-06-05T16:26:59.484Z,85.50
2017-06-05T16:29:26.288Z,86.80
2017-06-05T16:31:52.496Z,86.80
2017-06-05T16:34:18.726Z,85.50
2017-06-05T16:36:44.956Z,87.10
2017-06-05T16:39:11.204Z,87.20
2017-06-05T16:41:37.509Z,87.30
2017-06-05T16:44:03.753Z,86.50
2017-06-05T16:46:29.973Z,85.90
2017-06-05T16:48:56.181Z,85.90
2017-06-05T16:51:22.405Z,85.40
2017-06-05T16:53:48.648Z,86.00
2017-06-05T16:56:14.834Z,85.80
2017-06-05T16:58:41.041Z,84.40
2017-06-05T17:01:07.307Z,86.90
2017-06-05T17:03:33.497Z,87.40
2017-06-05T17:05:59.689Z,88.40
2017-06-05T17:08:25.948Z,88.20
2017-06-05T17:10:52.142Z,87.70
2017-06-05T17:13:18.351Z,88.60
2017-06-05T17:15:44.588Z,89.40
2017-06-05T17:18:10.805Z,90.40
2017-06-05T17:20:37.007Z,91.10
2017-06-05T17:23:03.295Z,90.90
2017-06-05T17:25:29.483Z,91.00
2017-06-05T17:27:55.673Z,91.20
2017-06-05T17:30:21.885Z,91.00
2017-06-05T17:32:48.845Z,90.70
2017-06-05T17:35:15.094Z,90.60
2017-06-05T17:37:41.360Z,90.70
2017-06-05T17:40:07.588Z,90.20
2017-06-05T17:42:33.796Z,90.30
2017-06-05T17:45:00.013Z,90.70
2017-06-05T17:47:26.218Z,90.60
2017-06-05T17:49:52.402Z,90.80
2017-06-05T17:52:18.638Z,91.10
2017-06-05T17:54:44.840Z,90.70
2017-06-05T17:57:11.044Z,90.80
2017-06-05T17:59:37.272Z,90.80
2017-06-05T18:02:03.517Z,91.10
2017-06-05T18:04:29.850Z,91.10
2017-06-05T18:06:56.162Z,91.10
2017-06-05T18:09:22.381Z,91.20
2017-06-05T18:11:48.622Z,91.70
2017-06-05T18:14:14.865Z,91.70
2017-06-05T18:16:41.062Z,92.00
2017-06-05T18:19:07.279Z,91.80
2017-06-05T18:21:33.484Z,91.90
2017-06-05T18:23:59.672Z,91.50
2017-06-05T18:26:25.900Z,92.40
2017-06-05T18:28:52.160Z,92.20
2017-06-05T18:31:19.136Z,92.20
2017-06-05T18:33:45.402Z,92.20
2017-06-05T18:36:11.733Z,92.60
2017-06-05T18:38:37.938Z,92.10
2017-06-05T18:41:04.192Z,91.60
2017-06-05T18:43:30.408Z,91.40
2017-06-05T18:45:56.630Z,91.90
2017-06-05T18:48:22.857Z,93.40
2017-06-05T18:50:49.053Z,94.20
2017-06-05T18:53:15.283Z,94.50
2017-06-05T18:55:41.514Z,95.10
2017-06-05T18:58:07.757Z,94.50
2017-06-05T19:00:33.962Z,94.30
2017-06-05T19:03:00.159Z,94.00
2017-06-05T19:05:26.440Z,93.70
2017-06-05T19:07:52.681Z,94.00
2017-06-05T19:10:18.895Z,93.60
2017-06-05T19:12:45.119Z,93.80
2017-06-05T19:15:11.360Z,93.80
2017-06-05T19:17:37.597Z,93.90
2017-06-05T19:20:03.841Z,94.10
2017-06-05T19:22:30.076Z,94.40
2017-06-05T19:24:56.295Z,94.90
2017-06-05T19:27:22.547Z,95.40
2017-06-05T19:29:48.728Z,95.40
2017-06-05T19:32:14.930Z,95.70
2017-06-05T19:34:41.175Z,95.80
2017-06-05T19:37:07.413Z,95.80
2017-06-05T19:39:33.604Z,96.00
2017-06-05T19:42:00.536Z,98.30
2017-06-05T19:44:27.516Z,98.60
2017-06-05T19:46:53.708Z,98.60
2017-06-05T19:49:20.652Z,99.30
2017-06-05T19:51:46.906Z,99.10
2017-06-05T19:54:13.126Z,99.50
2017-06-05T19:56:39.309Z,99.90
2017-06-05T19:59:05.534Z,99.90
2017-06-05T20:01:31.745Z,99.90
2017-06-05T20:03:57.936Z,99.90
2017-06-05T20:06:24.183Z,99.90
2017-06-05T20:08:50.416Z,99.90
2017-06-05T20:11:16.634Z,99.90
2017-06-05T20:13:42.873Z,99.90
2017-06-05T20:16:09.120Z,99.90
2017-06-05T20:18:35.373Z,99.90
2017-06-05T20:21:01.578Z,99.90
2017-06-05T20:23:27.772Z,99.90
2017-06-05T20:25:54.002Z,99.90
2017-06-05T20:28:20.182Z,99.90
2017-06-05T20:30:46.396Z,99.90
2017-06-05T20:33:12.608Z,99.90
2017-06-05T20:35:38.873Z,99.90
2017-06-05T20:38:05.800Z,99.90
2017-06-05T20:40:31.993Z,99.90
2017-06-05T20:42:58.217Z,99.90
2017-06-05T20:45:24.452Z,99.90
2017-06-05T20:47:50.648Z,99.90
2017-06-05T20:50:17.155Z,99.90
2017-06-05T20:52:43.336Z,99.90
2017-06-05T20:55:09.542Z,99.90
2017-06-05T20:57:35.757Z,99.90
2017-06-05T21:00:01.957Z,99.90
2017-06-05T21:02:28.260Z,99.90
2017-06-05T21:04:54.455Z,99.90
2017-06-05T21:07:20.676Z,99.90
2017-06-05T21:09:46.902Z,99.90
2017-06-05T21:12:13.827Z,99.90
2017-06-05T21:14:40.073Z,99.90
2017-06-05T21:17:07.012Z,99.90
2017-06-05T21:19:33.937Z,99.90
2017-06-05T21:22:01.648Z,99.90
2017-06-05T21:24:27.820Z,99.90
2017-06-05T21:26:54.044Z,99.90
2017-06-05T21:29:20.232Z,99.90
2017-06-05T21:31:46.428Z,99.90
2017-06-05T21:34:13.405Z,99.90
2017-06-05T21:36:39.579Z,99.90
2017-06-05T21:39:05.831Z,99.90
2017-06-05T21:41:32.755Z,99.90
2017-06-05T21:43:58.953Z,99.90
2017-06-05T21:46:25.168Z,99.90
2017-06-05T21:48:51.364Z,99.90
2017-06-05T21:51:17.589Z,99.90
2017-06-05T21:53:43.765Z,99.90
2017-06-05T21:56:09.963Z,99.90
2017-06-05T21:58:36.180Z,99.90
2017-06-05T22:01:02.380Z,99.90
2017-06-05T22:03:28.648Z,99.90
2017-06-05T22:05:54.841Z,99.90
2017-06-05T22:08:21.754Z,99.90
2017-06-05T22:10:47.967Z,99.90
2017-06-05T22:13:14.142Z,99.90
2017-06-05T22:15:41.097Z,99.90
2017-06-05T22:18:07.276Z,99.90
2017-06-05T22:20:33.456Z,99.90
2017-06-05T22:22:59.685Z,99.90
2017-06-05T22:25:25.859Z,99.90
2017-06-05T22:27:52.077Z,99.90
2017-06-05T22:30:18.295Z,99.90
2017-06-05T22:32:44.476Z,99.90
2017-06-05T22:35:10.664Z,99.90
2017-06-05T22:37:36.844Z,99.90
2017-06-05T22:40:03.048Z,99.90
2017-06-05T22:42:29.272Z,99.90
2017-06-05T22:44:55.451Z,99.90
2017-06-05T22:47:21.627Z,99.90
2017-06-05T22:49:48.571Z,99.90
2017-06-05T22:52:14.783Z,99.90
2017-06-05T22:54:40.956Z,99.90
2017-06-05T22:57:07.141Z,99.90
2017-06-05T22:59:33.352Z,99.90
2017-06-05T23:01:59.940Z,99.90
2017-06-05T23:04:26.120Z,99.90
2017-06-05T23:06:52.332Z,99.90
2017-06-05T23:09:18.509Z,99.90
2017-06-05T23:11:44.673Z,99.90
2017-06-05T23:14:10.920Z,99.90
2017-06-05T23:16:37.104Z,99.90
2017-06-05T23:19:03.324Z,99.90
2017-06-05T23:21:29.561Z,99.90
2017-06-05T23:23:55.791Z,99.90
2017-06-05T23:26:21.953Z,99.90
2017-06-05T23:28:48.152Z,99.90
2017-06-05T23:31:14.360Z,99.90
2017-06-05T23:33:40.607Z,99.90
2017-06-05T23:36:06.792Z,99.90
2017-06-05T23:38:32.951Z,99.90
2017-06-05T23:40:59.146Z,99.90
2017-06-05T23:43:25.359Z,99.90
2017-06-05T23:45:51.527Z,99.90
2017-06-05T23:48:18.620Z,99.90
2017-06-05T23:50:44.839Z,99.90
2017-06-05T23:53:11.011Z,99.90
2017-06-05T23:55:37.924Z,99.90
2017-06-05T23:58:04.132Z,99.90
